createdAt,value
2022-09-21T00:05:00.889Z,3.38
2022-09-21T00:10:02.540Z,3.10
2022-09-21T00:15:13.277Z,3.30
2022-09-21T00:20:15.940Z,3.67
2022-09-21T00:25:18.519Z,3.45
2022-09-21T00:30:20.162Z,3.78
2022-09-21T00:35:21.822Z,3.75
2022-09-21T00:40:23.486Z,4.05
2022-09-21T00:45:25.180Z,4.13
2022-09-21T00:50:26.967Z,3.67
2022-09-21T00:55:38.026Z,4.03
2022-09-21T01:00:40.487Z,4.38
2022-09-21T01:05:42.156Z,4.30
2022-09-21T01:11:01.647Z,4.20
2022-09-21T01:16:17.093Z,4.25
2022-09-21T01:21:26.486Z,4.25
2022-09-21T01:26:48.910Z,4.55
2022-09-21T01:31:57.008Z,4.80
2022-09-21T01:37:04.263Z,4.43
2022-09-21T01:42:07.316Z,4.45
2022-09-21T01:47:12.651Z,4.55
2022-09-21T01:52:46.156Z,4.50
2022-09-21T01:57:56.569Z,4.30
2022-09-21T02:03:05.421Z,4.38
2022-09-21T02:08:09.039Z,4.47
2022-09-21T02:13:11.399Z,4.60
2022-09-21T02:18:41.247Z,5.03
2022-09-21T02:23:57.586Z,4.57
2022-09-21T02:29:15.974Z,4.97
2022-09-21T02:34:45.989Z,5.38
2022-09-21T02:40:19.673Z,5.03
2022-09-21T02:45:25.505Z,6.53
2022-09-21T02:50:40.106Z,5.18
2022-09-21T02:55:44.264Z,5.47
2022-09-21T03:00:45.941Z,5.03
2022-09-21T03:05:50.905Z,5.68
2022-09-21T03:10:53.882Z,6.00
2022-09-21T03:16:04.011Z,6.40
2022-09-21T03:21:05.980Z,5.80
2022-09-21T03:26:08.838Z,6.47
2022-09-21T03:31:10.592Z,6.20
2022-09-21T03:36:12.277Z,6.47
2022-09-21T03:41:15.222Z,6.68
2022-09-21T03:46:17.264Z,7.00
2022-09-21T03:51:18.979Z,6.97
2022-09-21T03:56:20.621Z,7.35
2022-09-21T04:01:22.387Z,6.78
2022-09-21T04:06:25.064Z,6.97
2022-09-21T04:11:26.691Z,7.07
2022-09-21T04:16:28.705Z,6.88
2022-09-21T04:21:30.462Z,6.50
2022-09-21T04:26:34.294Z,6.80
2022-09-21T04:31:35.996Z,7.63
2022-09-21T04:36:37.818Z,6.53
2022-09-21T04:41:39.535Z,6.82
2022-09-21T04:46:42.275Z,6.72
2022-09-21T04:51:43.979Z,7.22
2022-09-21T04:56:45.668Z,6.60
2022-09-21T05:01:47.330Z,7.38
2022-09-21T05:06:49.031Z,7.38
2022-09-21T05:11:51.999Z,6.50
2022-09-21T05:16:53.721Z,7.03
2022-09-21T05:21:55.376Z,7.78
2022-09-21T05:26:57.191Z,7.45
2022-09-21T05:32:18.537Z,6.95
2022-09-21T05:37:52.096Z,7.35
2022-09-21T05:42:53.928Z,8.63
2022-09-21T05:48:07.844Z,6.95
2022-09-21T05:53:34.004Z,6.93
2022-09-21T05:58:57.275Z,7.32
2022-09-21T06:03:59.838Z,7.00
2022-09-21T06:09:01.457Z,7.50
2022-09-21T06:14:03.307Z,7.18
2022-09-21T06:19:05.262Z,6.90
2022-09-21T06:24:07.343Z,6.85
2022-09-21T06:29:08.972Z,6.65
2022-09-21T06:34:10.633Z,7.38
2022-09-21T06:39:12.829Z,7.07
2022-09-21T06:44:14.508Z,7.05
2022-09-21T06:49:16.197Z,7.47
2022-09-21T06:54:18.362Z,7.20
2022-09-21T06:59:20.367Z,6.90
2022-09-21T07:04:25.340Z,7.40
2022-09-21T07:14:48.685Z,7.95
2022-09-21T07:19:50.484Z,7.13
2022-09-21T07:24:52.276Z,7.78
2022-09-21T07:29:54.184Z,8.35
2022-09-21T07:34:56.965Z,8.25
2022-09-21T07:39:58.785Z,7.25
2022-09-21T07:45:04.315Z,7.88
2022-09-21T07:50:06.955Z,7.80
2022-09-21T07:55:08.704Z,7.47
2022-09-21T08:00:11.006Z,7.10
2022-09-21T08:05:12.641Z,7.85
2022-09-21T08:10:14.385Z,7.18
2022-09-21T08:15:43.949Z,7.72
2022-09-21T08:20:39.448Z,6.95
2022-09-21T08:25:41.103Z,6.85
2022-09-21T08:30:42.701Z,6.50
2022-09-21T08:35:52.279Z,5.80
2022-09-21T08:40:55.190Z,6.63
2022-09-21T08:45:59.515Z,6.53
2022-09-21T08:51:05.770Z,5.80
2022-09-21T08:56:12.979Z,5.93
2022-09-21T09:01:21.232Z,5.88
2022-09-21T09:06:28.829Z,5.15
2022-09-21T09:11:49.746Z,5.13
2022-09-21T09:17:16.148Z,5.03
2022-09-21T09:22:33.615Z,4.50
2022-09-21T09:27:42.445Z,4.63
2022-09-21T09:32:58.243Z,4.50
2022-09-21T09:38:13.108Z,4.30
2022-09-21T09:43:32.920Z,4.53
2022-09-21T09:48:55.088Z,3.80
2022-09-21T09:54:00.845Z,4.00
2022-09-21T09:59:09.050Z,3.42
2022-09-21T10:04:13.621Z,3.70
2022-09-21T10:09:24.133Z,3.38
2022-09-21T10:14:29.698Z,2.55
2022-09-21T10:19:31.885Z,3.30
2022-09-21T10:24:37.286Z,3.53
2022-09-21T10:29:47.742Z,3.25
2022-09-21T10:35:07.720Z,1.80
2022-09-21T10:40:21.689Z,0.93
2022-09-21T10:45:26.552Z,0.88
2022-09-21T10:50:37.904Z,0.90
2022-09-21T10:55:58.484Z,1.40
2022-09-21T11:01:28.935Z,1.23
2022-09-21T11:06:39.071Z,1.70
2022-09-21T11:12:07.967Z,1.40
2022-09-21T11:17:20.585Z,1.80
2022-09-21T11:22:57.328Z,1.55
2022-09-21T11:28:13.436Z,1.48
2022-09-21T11:33:39.468Z,1.30
2022-09-21T11:39:05.064Z,1.40
2022-09-21T11:44:25.469Z,1.00
2022-09-21T11:50:26.281Z,1.00
2022-09-21T11:55:47.247Z,0.85
2022-09-21T12:01:17.637Z,0.90
2022-09-21T12:06:57.374Z,1.25
2022-09-21T12:12:17.997Z,0.90
2022-09-21T12:17:28.709Z,0.60
2022-09-21T12:22:34.907Z,0.75
2022-09-21T12:27:41.449Z,1.00
2022-09-21T12:32:53.431Z,0.80
2022-09-21T12:38:13.754Z,0.60
2022-09-21T12:43:21.640Z,0.77
2022-09-21T12:48:45.143Z,0.85
2022-09-21T12:53:51.093Z,0.80
2022-09-21T12:59:12.072Z,0.90
2022-09-21T13:04:48.103Z,1.20
2022-09-21T13:09:51.206Z,0.90
2022-09-21T13:14:59.182Z,0.80
2022-09-21T13:20:20.584Z,0.80
2022-09-21T13:25:28.207Z,1.00
2022-09-21T13:30:42.488Z,0.93
2022-09-21T13:36:02.103Z,1.30
2022-09-21T13:41:19.414Z,1.05
2022-09-21T13:46:36.141Z,1.10
2022-09-21T13:52:05.851Z,0.88
2022-09-21T13:57:16.427Z,0.90
2022-09-21T14:02:37.163Z,0.90
2022-09-21T14:12:45.588Z,1.42
2022-09-21T14:18:16.200Z,0.80
2022-09-21T14:23:24.046Z,1.10
2022-09-21T14:28:39.248Z,0.50
2022-09-21T14:33:50.203Z,0.70
2022-09-21T14:39:00.383Z,0.70
2022-09-21T14:44:02.372Z,0.65
2022-09-21T14:49:24.954Z,0.80
2022-09-21T14:54:51.558Z,1.45
2022-09-21T15:00:03.151Z,0.70
2022-09-21T15:05:36.365Z,0.40
2022-09-21T15:10:57.304Z,0.50
2022-09-21T15:16:35.897Z,0.60
2022-09-21T15:21:43.377Z,0.65
2022-09-21T15:26:45.983Z,1.10
2022-09-21T15:31:47.988Z,0.68
2022-09-21T15:36:51.998Z,0.80
2022-09-21T15:42:19.629Z,1.80
2022-09-21T15:47:25.921Z,0.70
2022-09-21T15:52:37.788Z,1.00
2022-09-21T15:57:42.980Z,3.75
2022-09-21T16:02:57.134Z,1.10
2022-09-21T16:08:30.119Z,1.60
2022-09-21T16:13:51.364Z,1.63
2022-09-21T16:18:55.864Z,1.10
2022-09-21T16:24:09.703Z,1.10
2022-09-21T16:29:23.961Z,1.70
2022-09-21T16:34:36.789Z,1.52
2022-09-21T16:39:38.519Z,1.70
2022-09-21T16:44:44.753Z,1.90
2022-09-21T16:49:46.421Z,1.90
2022-09-21T16:54:49.413Z,1.70
2022-09-21T16:59:51.411Z,1.77
2022-09-21T17:04:53.039Z,2.20
2022-09-21T17:09:54.682Z,2.40
2022-09-21T17:14:56.394Z,2.65
2022-09-21T17:19:58.091Z,2.92
2022-09-21T17:24:59.707Z,2.95
2022-09-21T17:30:03.416Z,2.88
2022-09-21T17:35:23.920Z,2.70
2022-09-21T17:40:27.223Z,2.97
2022-09-21T17:45:46.601Z,2.90
2022-09-21T17:50:49.720Z,3.50
2022-09-21T17:55:57.570Z,4.50
2022-09-21T18:01:08.274Z,4.03
2022-09-21T18:06:10.970Z,4.50
2022-09-21T18:11:24.960Z,6.45
2022-09-21T18:16:35.054Z,7.50
2022-09-21T18:21:43.013Z,5.97
2022-09-21T18:26:45.041Z,7.13
2022-09-21T18:31:59.091Z,28.60
2022-09-21T18:37:30.403Z,42.40
2022-09-21T18:42:53.367Z,8.68
2022-09-21T18:48:34.755Z,11.23
2022-09-21T18:53:45.160Z,10.82
2022-09-21T18:58:47.101Z,12.95
2022-09-21T19:03:49.803Z,10.50
2022-09-21T19:09:21.999Z,30.60
2022-09-21T19:14:31.070Z,25.60
2022-09-21T19:19:55.992Z,13.15
2022-09-21T19:25:14.170Z,10.40
2022-09-21T19:30:17.113Z,9.93
2022-09-21T19:35:25.456Z,9.38
2022-09-21T19:40:32.869Z,8.63
2022-09-21T19:46:05.620Z,8.65
2022-09-21T19:51:33.763Z,8.35
2022-09-21T19:57:06.020Z,9.77
2022-09-21T20:02:22.045Z,8.15
2022-09-21T20:07:48.625Z,9.32
2022-09-21T20:13:03.567Z,10.07
2022-09-21T20:18:28.518Z,9.18
2022-09-21T20:23:30.618Z,9.55
2022-09-21T20:28:32.710Z,9.07
2022-09-21T20:33:34.340Z,9.23
2022-09-21T20:38:36.216Z,9.52
2022-09-21T20:43:37.877Z,9.23
2022-09-21T20:48:40.026Z,9.57
2022-09-21T20:53:41.625Z,9.90
2022-09-21T20:58:43.228Z,8.38
2022-09-21T21:03:44.882Z,8.65
2022-09-21T21:08:46.935Z,8.98
2022-09-21T21:13:48.573Z,9.18
2022-09-21T21:18:50.759Z,8.57
2022-09-21T21:24:11.336Z,8.32
2022-09-21T21:29:13.175Z,8.57
2022-09-21T21:34:15.727Z,8.48
2022-09-21T21:39:17.444Z,8.25
2022-09-21T21:44:19.084Z,8.43
2022-09-21T21:49:21.457Z,8.13
2022-09-21T21:54:24.216Z,7.90
2022-09-21T21:59:25.822Z,7.30
2022-09-21T22:04:28.046Z,7.25
2022-09-21T22:09:29.825Z,6.65
2022-09-21T22:14:31.838Z,7.43
2022-09-21T22:19:33.541Z,7.25
2022-09-21T22:24:35.168Z,7.05
2022-09-21T22:29:36.803Z,6.75
2022-09-21T22:34:38.411Z,7.70
2022-09-21T22:39:40.075Z,7.68
2022-09-21T22:44:41.729Z,8.05
2022-09-21T22:49:43.361Z,7.30
2022-09-21T22:54:44.964Z,7.55
2022-09-21T22:59:46.597Z,7.75
2022-09-21T23:04:48.751Z,6.93
2022-09-21T23:09:50.612Z,8.15
2022-09-21T23:14:52.386Z,8.68
2022-09-21T23:19:54.039Z,10.10
2022-09-21T23:24:56.097Z,10.23
2022-09-21T23:29:57.720Z,9.68
2022-09-21T23:34:59.430Z,10.10
2022-09-21T23:40:01.362Z,10.82
2022-09-21T23:45:03.090Z,9.60
2022-09-21T23:50:05.037Z,9.95
2022-09-21T23:55:06.988Z,10.32
